Time;durP1;ratioP1;P1;durP2;ratioP2;P2;SDS_P1;SDS_P2;PMS_P1;PMS_P2;Temp;Humidity;BMP_temperature;BMP_pressure;BME280_temperature;BME280_humidity;BME280_pressure;Samples;Min_cycle;Max_cycle;Signal;HPM_P1;HPM_P2
2022/07/14 00:00:59;;;;;;;5.00;3.00;;;23.10;69.60;;;;;;4967342;28;20031;-69
2022/07/14 00:03:25;;;;;;;4.53;2.92;;;23.00;69.70;;;;;;4953128;29;20026;-69
2022/07/14 00:05:50;;;;;;;4.50;3.22;;;23.00;70.20;;;;;;4957017;28;20038;-69
2022/07/14 00:08:16;;;;;;;5.45;2.95;;;22.90;70.10;;;;;;4956132;28;20560;-69
2022/07/14 00:10:42;;;;;;;5.15;3.08;;;22.80;70.40;;;;;;4970750;28;20442;-70
2022/07/14 00:13:07;;;;;;;4.57;3.40;;;22.70;70.60;;;;;;4971813;28;20552;-69
2022/07/14 00:15:33;;;;;;;4.55;2.97;;;22.70;70.90;;;;;;4971039;28;20101;-69
2022/07/14 00:17:59;;;;;;;4.40;2.92;;;22.60;71.00;;;;;;4936166;29;20055;-69
2022/07/14 00:20:27;;;;;;;3.83;2.75;;;22.60;71.20;;;;;;4951124;28;20042;-69
2022/07/14 00:22:53;;;;;;;4.32;3.05;;;22.60;71.30;;;;;;4972620;28;20034;-69
2022/07/14 00:25:19;;;;;;;4.82;3.00;;;22.50;71.70;;;;;;4971308;28;20039;-70
2022/07/14 00:27:46;;;;;;;4.40;3.03;;;22.50;71.80;;;;;;4972402;28;20461;-69
2022/07/14 00:30:11;;;;;;;3.40;2.70;;;22.40;71.80;;;;;;4972798;28;20030;-69
2022/07/14 00:32:37;;;;;;;5.13;2.90;;;22.40;72.00;;;;;;4971283;28;20082;-69
2022/07/14 00:35:04;;;;;;;4.13;2.88;;;22.40;72.30;;;;;;4972626;28;20030;-69
2022/07/14 00:37:29;;;;;;;3.60;2.47;;;22.30;72.60;;;;;;4950052;28;20035;-69
2022/07/14 00:39:55;;;;;;;3.92;2.80;;;22.20;72.80;;;;;;4972250;28;20046;-70
2022/07/14 00:42:33;;;;;;;3.33;2.40;;;22.20;73.40;;;;;;4970377;28;20073;-69
2022/07/14 00:45:04;;;;;;;2.88;2.55;;;22.10;73.50;;;;;;4953057;29;20034;-70
2022/07/14 00:47:30;;;;;;;5.13;2.70;;;22.10;73.60;;;;;;4969975;28;20868;-69
2022/07/14 00:49:56;;;;;;;4.20;3.00;;;22.00;73.60;;;;;;4971701;28;20019;-70
2022/07/14 00:52:23;;;;;;;4.10;2.80;;;22.00;74.10;;;;;;4971162;28;20050;-70
2022/07/14 00:54:50;;;;;;;4.25;2.92;;;22.00;74.20;;;;;;4972126;28;20031;-69
2022/07/14 00:57:16;;;;;;;4.38;2.80;;;21.90;74.50;;;;;;4956957;28;20031;-70
2022/07/14 00:59:41;;;;;;;3.05;2.47;;;21.80;74.40;;;;;;4952377;29;20495;-70
2022/07/14 01:02:07;;;;;;;4.95;3.15;;;21.80;74.30;;;;;;4953943;28;20031;-70
2022/07/14 01:04:32;;;;;;;3.85;2.22;;;21.80;74.20;;;;;;4952859;29;20247;-70
2022/07/14 01:06:58;;;;;;;2.97;2.35;;;21.70;74.20;;;;;;4967852;28;20038;-70
2022/07/14 01:09:23;;;;;;;4.47;2.45;;;21.70;74.40;;;;;;4975219;28;20043;-69
2022/07/14 01:11:49;;;;;;;3.85;2.10;;;21.60;74.60;;;;;;4962900;28;20031;-70
2022/07/14 01:14:14;;;;;;;3.30;2.45;;;21.60;74.70;;;;;;4967354;28;20126;-70
2022/07/14 01:16:40;;;;;;;2.40;1.95;;;21.60;74.60;;;;;;4964655;28;20038;-71
2022/07/14 01:19:06;;;;;;;4.72;2.70;;;21.60;74.80;;;;;;4964257;28;20374;-71
2022/07/14 01:21:31;;;;;;;3.78;2.20;;;21.60;74.90;;;;;;4973939;28;20121;-71
2022/07/14 01:23:57;;;;;;;3.22;2.60;;;21.60;74.90;;;;;;4975296;28;20433;-71
2022/07/14 01:26:24;;;;;;;4.68;2.67;;;21.50;75.00;;;;;;4967067;28;20027;-70
2022/07/14 01:28:49;;;;;;;3.83;2.78;;;21.60;75.20;;;;;;4957877;28;20110;-71
2022/07/14 01:31:15;;;;;;;3.85;2.70;;;21.50;75.40;;;;;;4978393;28;20430;-70
2022/07/14 01:33:41;;;;;;;4.15;2.65;;;21.40;75.60;;;;;;4994736;28;20113;-70
2022/07/14 01:36:07;;;;;;;3.92;2.38;;;21.40;75.70;;;;;;4972657;28;20047;-71
2022/07/14 01:38:32;;;;;;;3.75;2.03;;;21.40;75.50;;;;;;4973962;28;20074;-72
2022/07/14 01:40:58;;;;;;;5.35;2.72;;;21.30;75.50;;;;;;4975018;28;20026;-71
2022/07/14 01:43:23;;;;;;;4.80;2.67;;;21.30;75.40;;;;;;4961896;28;20051;-71
2022/07/14 01:45:49;;;;;;;3.60;2.80;;;21.20;75.40;;;;;;4963831;28;20026;-71
2022/07/14 01:48:15;;;;;;;3.83;2.50;;;21.20;75.40;;;;;;4963130;28;20065;-71
2022/07/14 01:50:40;;;;;;;4.70;2.17;;;21.10;75.40;;;;;;4955336;29;20475;-72
2022/07/14 01:53:06;;;;;;;4.13;2.20;;;21.10;75.60;;;;;;4956254;28;20426;-72
2022/07/14 01:55:31;;;;;;;3.88;2.20;;;21.00;75.60;;;;;;4955438;29;20101;-71
2022/07/14 01:57:57;;;;;;;4.00;2.33;;;20.90;75.60;;;;;;4944291;29;20086;-71
2022/07/14 02:00:22;;;;;;;3.88;1.90;;;20.90;75.50;;;;;;4955188;29;20039;-71
2022/07/14 02:02:48;;;;;;;4.60;2.17;;;20.90;75.50;;;;;;4970563;28;20033;-71
2022/07/14 02:05:13;;;;;;;4.53;2.50;;;20.80;75.60;;;;;;4974698;28;20027;-70
2022/07/14 02:07:39;;;;;;;3.80;2.30;;;20.80;75.30;;;;;;4967832;28;20024;-71
2022/07/14 02:12:49;;;;;;;;;;;20.70;75.50;;;;;;4961420;28;20053;-71
2022/07/14 02:15:15;;;;;;;3.60;1.92;;;20.70;75.20;;;;;;4976129;28;19906;-72
2022/07/14 02:17:41;;;;;;;5.05;2.30;;;20.60;75.50;;;;;;4974533;28;20026;-71
2022/07/14 02:20:08;;;;;;;3.60;2.03;;;20.60;75.70;;;;;;4974756;28;20039;-71
2022/07/14 02:22:34;;;;;;;7.75;2.33;;;20.50;75.80;;;;;;4974312;28;20110;-71
2022/07/14 02:25:00;;;;;;;7.38;2.78;;;20.60;75.80;;;;;;4975674;28;20130;-72
2022/07/14 02:27:25;;;;;;;3.78;1.80;;;20.50;76.00;;;;;;4974233;28;20482;-71
2022/07/14 02:29:51;;;;;;;5.22;2.25;;;20.40;76.30;;;;;;4974924;28;20085;-71
2022/07/14 02:32:16;;;;;;;3.97;2.17;;;20.40;76.40;;;;;;4969876;28;20114;-71
2022/07/14 02:34:42;;;;;;;4.68;2.20;;;20.30;76.70;;;;;;4954637;29;20493;-71
2022/07/14 02:37:08;;;;;;;4.95;2.10;;;20.20;77.00;;;;;;4938570;28;20054;-71
2022/07/14 02:39:33;;;;;;;4.47;2.13;;;20.20;77.40;;;;;;4954312;29;20035;-71
2022/07/14 02:41:59;;;;;;;4.75;1.88;;;20.10;77.40;;;;;;4955511;28;20031;-71
2022/07/14 02:44:24;;;;;;;6.30;2.55;;;20.00;77.60;;;;;;4954737;29;20064;-71
2022/07/14 02:46:50;;;;;;;6.28;2.22;;;20.00;77.50;;;;;;4954994;28;20414;-71
2022/07/14 02:49:15;;;;;;;4.82;2.15;;;19.90;77.90;;;;;;4973374;28;20046;-71
2022/07/14 02:51:41;;;;;;;4.93;2.58;;;19.90;78.10;;;;;;4973628;28;20046;-71
2022/07/14 02:54:06;;;;;;;5.07;1.90;;;19.80;78.10;;;;;;4955280;28;20039;-71
2022/07/14 02:56:32;;;;;;;6.75;2.55;;;19.80;78.40;;;;;;4954030;29;20031;-71
2022/07/14 02:58:58;;;;;;;7.10;2.30;;;19.70;78.70;;;;;;4951054;29;20399;-70
2022/07/14 03:01:23;;;;;;;5.07;2.20;;;19.60;78.70;;;;;;4959971;28;20082;-69
2022/07/14 03:03:49;;;;;;;6.70;2.40;;;19.60;78.70;;;;;;4957348;28;20090;-70
2022/07/14 03:06:17;;;;;;;3.08;1.73;;;19.60;79.20;;;;;;4966106;28;20103;-70
2022/07/14 03:08:43;;;;;;;5.35;2.08;;;19.50;79.20;;;;;;4972384;28;20053;-68
2022/07/14 03:11:09;;;;;;;4.43;2.08;;;19.50;79.50;;;;;;4973224;28;20026;-68
2022/07/14 03:13:36;;;;;;;5.22;2.00;;;19.40;79.50;;;;;;4958987;28;20038;-69
2022/07/14 03:16:03;;;;;;;7.13;2.78;;;19.40;79.50;;;;;;4954406;29;20038;-69
2022/07/14 03:18:29;;;;;;;5.18;2.17;;;19.30;79.90;;;;;;4957952;28;20062;-69
2022/07/14 03:20:54;;;;;;;5.30;2.10;;;19.30;80.20;;;;;;4972443;28;20066;-69
2022/07/14 03:23:21;;;;;;;8.90;2.47;;;19.20;80.00;;;;;;4960695;28;20031;-69
2022/07/14 03:25:47;;;;;;;9.68;2.60;;;19.20;80.00;;;;;;4936488;29;20138;-69
2022/07/14 03:28:13;;;;;;;4.70;2.28;;;19.20;80.10;;;;;;4944648;28;20042;-69
2022/07/14 03:30:39;;;;;;;5.60;2.05;;;19.10;80.50;;;;;;4953520;28;20027;-69
2022/07/14 03:33:05;;;;;;;9.77;2.63;;;19.10;80.40;;;;;;4970213;28;20022;-69
2022/07/14 03:35:32;;;;;;;7.20;2.55;;;19.00;80.90;;;;;;4972924;28;20117;-70
2022/07/14 03:37:57;;;;;;;7.25;2.65;;;18.90;81.00;;;;;;4972012;28;20023;-70
2022/07/14 03:40:23;;;;;;;7.47;2.22;;;18.90;81.00;;;;;;4972714;28;20557;-70
2022/07/14 03:42:48;;;;;;;4.43;2.10;;;18.90;81.30;;;;;;4951483;29;20015;-70
2022/07/14 03:45:14;;;;;;;6.70;2.00;;;18.80;81.30;;;;;;4953636;29;20515;-70
2022/07/14 03:47:42;;;;;;;8.00;2.00;;;18.80;81.50;;;;;;4954345;28;20082;-70
2022/07/14 03:50:08;;;;;;;5.72;2.35;;;18.80;81.70;;;;;;4955542;29;20126;-70
2022/07/14 03:52:34;;;;;;;5.50;2.03;;;18.80;81.40;;;;;;4966094;28;20054;-68
2022/07/14 03:55:00;;;;;;;8.95;2.13;;;18.80;81.70;;;;;;4953369;29;20023;-69
2022/07/14 03:57:25;;;;;;;5.22;2.05;;;18.80;81.50;;;;;;4954497;28;20027;-69
2022/07/14 03:59:51;;;;;;;11.10;2.58;;;18.80;81.70;;;;;;4953595;29;20127;-69
2022/07/14 04:02:16;;;;;;;8.35;2.65;;;18.70;81.80;;;;;;4957917;28;20110;-70
2022/07/14 04:04:42;;;;;;;7.38;2.65;;;18.60;81.90;;;;;;4953323;29;20047;-69
2022/07/14 04:07:08;;;;;;;6.72;2.70;;;18.50;82.00;;;;;;4954106;28;20114;-69
2022/07/14 04:09:33;;;;;;;9.75;2.65;;;18.40;82.50;;;;;;4940601;28;20041;-69
2022/07/14 04:11:59;;;;;;;6.18;2.33;;;18.30;82.80;;;;;;4970359;28;20031;-69
2022/07/14 04:14:25;;;;;;;5.97;2.10;;;18.30;82.70;;;;;;4970916;28;20106;-69
2022/07/14 04:16:51;;;;;;;8.55;2.63;;;18.30;83.00;;;;;;4971761;28;20055;-69
2022/07/14 04:19:17;;;;;;;6.57;2.90;;;18.30;82.90;;;;;;4962364;28;20042;-69
2022/07/14 04:21:42;;;;;;;8.02;2.65;;;18.30;83.00;;;;;;4972273;28;20027;-69
2022/07/14 04:24:08;;;;;;;7.10;2.38;;;18.30;83.20;;;;;;4970269;28;20119;-69
2022/07/14 04:26:37;;;;;;;7.18;2.20;;;18.30;83.20;;;;;;4971940;28;20030;-69
2022/07/14 04:29:03;;;;;;;8.18;2.92;;;18.30;83.70;;;;;;4954487;28;20078;-69
2022/07/14 04:31:29;;;;;;;6.05;2.53;;;18.30;84.10;;;;;;4964604;28;20120;-69
2022/07/14 04:33:54;;;;;;;11.05;2.97;;;18.30;83.60;;;;;;4955496;28;20023;-69
2022/07/14 04:36:20;;;;;;;8.57;2.60;;;18.30;83.90;;;;;;4953421;29;20382;-68
2022/07/14 04:38:45;;;;;;;7.78;2.55;;;18.30;83.80;;;;;;4953620;28;20039;-68
2022/07/14 04:41:11;;;;;;;11.25;4.47;;;18.40;83.90;;;;;;4956968;28;20493;-70
2022/07/14 04:43:36;;;;;;;5.53;2.20;;;18.30;83.90;;;;;;4974430;28;20031;-68
2022/07/14 04:46:02;;;;;;;9.20;2.72;;;18.40;84.00;;;;;;4975711;28;20031;-68
2022/07/14 04:48:28;;;;;;;9.75;2.50;;;18.40;84.00;;;;;;4963113;28;20118;-68
2022/07/14 04:53:38;;;;;;;7.70;2.25;;;18.40;84.00;;;;;;4961022;28;20164;-70
2022/07/14 04:56:04;;;;;;;12.10;3.00;;;18.50;83.90;;;;;;4956854;29;20039;-70
2022/07/14 04:58:30;;;;;;;6.30;2.50;;;18.50;84.00;;;;;;4958840;28;20031;-70
2022/07/14 05:00:59;;;;;;;5.95;2.25;;;18.60;84.00;;;;;;4970630;28;20027;-70
2022/07/14 05:03:25;;;;;;;6.50;3.17;;;18.70;83.60;;;;;;4962615;28;20046;-70
2022/07/14 05:05:51;;;;;;;7.75;3.42;;;18.60;83.60;;;;;;4956172;29;20442;-70
2022/07/14 05:08:16;;;;;;;8.40;2.50;;;18.70;83.80;;;;;;4957414;28;20035;-70
2022/07/14 05:10:42;;;;;;;8.45;2.45;;;18.80;83.60;;;;;;4938685;29;20032;-69
2022/07/14 05:13:07;;;;;;;7.93;3.13;;;18.80;83.60;;;;;;4972640;28;20426;-70
2022/07/14 05:15:33;;;;;;;8.98;2.55;;;18.90;83.20;;;;;;4975264;28;20070;-70
2022/07/14 05:17:58;;;;;;;6.43;2.50;;;18.80;83.30;;;;;;4965879;28;20035;-70
2022/07/14 05:20:24;;;;;;;9.52;2.42;;;18.80;83.10;;;;;;4955702;29;20070;-70
2022/07/14 05:22:49;;;;;;;7.40;2.72;;;18.80;83.30;;;;;;4964366;28;20060;-69
2022/07/14 05:25:15;;;;;;;9.23;2.72;;;18.80;83.70;;;;;;4975459;28;20031;-69
2022/07/14 05:27:41;;;;;;;13.93;3.35;;;18.80;83.50;;;;;;4960047;28;20030;-69
2022/07/14 05:30:09;;;;;;;8.57;2.50;;;18.70;83.30;;;;;;4974544;28;20066;-70
2022/07/14 05:32:35;;;;;;;10.32;2.80;;;18.70;83.30;;;;;;4968693;28;20114;-70
2022/07/14 05:35:01;;;;;;;9.68;3.83;;;18.70;83.20;;;;;;4955982;29;20104;-70
2022/07/14 05:37:26;;;;;;;7.10;2.53;;;18.70;83.30;;;;;;4956801;28;20039;-71
2022/07/14 05:39:52;;;;;;;7.82;2.47;;;18.80;83.40;;;;;;4955569;29;20043;-71
2022/07/14 05:42:22;;;;;;;8.68;2.30;;;18.80;83.50;;;;;;4959949;28;20027;-71
2022/07/14 05:44:47;;;;;;;12.63;2.95;;;18.80;83.20;;;;;;4974046;28;20088;-71
2022/07/14 05:47:13;;;;;;;8.10;3.25;;;18.80;83.90;;;;;;4971444;28;20950;-70
2022/07/14 05:49:40;;;;;;;11.45;3.15;;;18.90;83.70;;;;;;4962470;28;20035;-70
2022/07/14 05:52:05;;;;;;;7.22;2.72;;;18.90;84.10;;;;;;4972451;28;20054;-70
2022/07/14 05:54:31;;;;;;;7.35;2.83;;;18.90;83.90;;;;;;4955787;29;20023;-71
2022/07/14 05:56:57;;;;;;;6.80;2.45;;;18.90;83.40;;;;;;4958108;28;20046;-70
2022/07/14 05:59:22;;;;;;;8.77;2.80;;;18.90;83.70;;;;;;4955131;29;20387;-69
2022/07/14 06:01:48;;;;;;;11.02;2.95;;;19.00;83.90;;;;;;4962356;28;20034;-69
2022/07/14 06:04:14;;;;;;;6.65;2.42;;;19.00;83.60;;;;;;4956150;28;20024;-70
2022/07/14 06:06:47;;;;;;;12.23;2.92;;;19.10;83.60;;;;;;4966472;28;20034;-70
2022/07/14 06:09:13;;;;;;;6.93;2.30;;;19.20;83.50;;;;;;4974182;28;20136;-70
2022/07/14 06:11:41;;;;;;;6.93;2.60;;;19.30;83.50;;;;;;4976296;28;20050;-72
2022/07/14 06:14:07;;;;;;;7.82;3.28;;;19.40;83.10;;;;;;4974726;28;20034;-72
2022/07/14 06:16:33;;;;;;;7.30;2.20;;;19.50;82.80;;;;;;4976912;28;20031;-67
2022/07/14 06:18:59;;;;;;;8.43;2.85;;;19.50;83.00;;;;;;4973266;28;20133;-67
2022/07/14 06:21:24;;;;;;;6.03;2.58;;;19.50;82.70;;;;;;4974675;28;20111;-67
2022/07/14 06:23:50;;;;;;;11.13;2.55;;;19.60;82.40;;;;;;4958074;28;20378;-67
2022/07/14 06:26:16;;;;;;;6.70;2.33;;;19.60;82.20;;;;;;4955107;29;20027;-68
2022/07/14 06:28:42;;;;;;;6.68;2.72;;;19.70;81.90;;;;;;4971129;28;20062;-68
2022/07/14 06:31:08;;;;;;;7.40;3.05;;;19.70;81.40;;;;;;4973616;28;20073;-68
2022/07/14 06:33:33;;;;;;;7.05;2.60;;;19.70;81.10;;;;;;4960313;28;20082;-68
2022/07/14 06:35:59;;;;;;;8.30;2.53;;;19.80;80.70;;;;;;4954854;29;20031;-68
2022/07/14 06:38:24;;;;;;;7.07;2.53;;;19.80;80.70;;;;;;4967458;28;20039;-68
2022/07/14 06:40:50;;;;;;;7.75;2.58;;;19.70;80.50;;;;;;4973508;28;20030;-68
2022/07/14 06:43:16;;;;;;;5.80;2.53;;;19.80;80.90;;;;;;4962158;28;20028;-68
2022/07/14 06:45:42;;;;;;;9.18;2.95;;;19.70;80.80;;;;;;4954329;28;20067;-68
2022/07/14 06:48:07;;;;;;;6.15;2.28;;;19.70;80.60;;;;;;4962909;28;20031;-67
2022/07/14 06:50:33;;;;;;;8.13;2.55;;;19.70;80.20;;;;;;4973424;28;20105;-68
2022/07/14 06:52:59;;;;;;;4.53;2.45;;;19.70;79.90;;;;;;4972784;28;20041;-67
2022/07/14 06:55:25;;;;;;;8.52;2.72;;;19.70;79.50;;;;;;4973811;28;20106;-67
2022/07/14 06:57:51;;;;;;;7.13;2.28;;;19.70;80.00;;;;;;4972656;28;20084;-68
2022/07/14 07:00:16;;;;;;;6.22;2.47;;;19.70;79.40;;;;;;4973060;28;20042;-68
2022/07/14 07:02:42;;;;;;;5.45;2.53;;;19.70;79.30;;;;;;4966604;28;20110;-68
2022/07/14 07:07:57;;;;;;;6.90;2.38;;;19.70;78.80;;;;;;4962663;28;20033;-67
2022/07/14 07:10:23;;;;;;;5.68;1.95;;;19.80;79.10;;;;;;4973341;28;20119;-67
2022/07/14 07:12:48;;;;;;;9.48;2.28;;;19.80;79.30;;;;;;4964941;28;20122;-67
2022/07/14 07:15:14;;;;;;;8.07;2.65;;;20.00;79.00;;;;;;4954226;29;20035;-67
2022/07/14 07:17:39;;;;;;;10.45;2.35;;;20.10;79.10;;;;;;4937666;29;20158;-67
2022/07/14 07:20:06;;;;;;;6.18;2.38;;;20.10;78.70;;;;;;4953889;29;20036;-67
2022/07/14 07:22:35;;;;;;;4.10;1.92;;;20.20;78.00;;;;;;4967760;28;20034;-67
2022/07/14 07:25:02;;;;;;;4.97;1.90;;;20.20;76.60;;;;;;4972385;28;20420;-67
2022/07/14 07:27:28;;;;;;;6.22;2.42;;;20.30;76.70;;;;;;4972384;28;20049;-67
2022/07/14 07:29:53;;;;;;;4.47;1.85;;;20.30;76.50;;;;;;4972614;28;20086;-67
2022/07/14 07:32:19;;;;;;;7.40;2.72;;;20.40;76.40;;;;;;4971197;28;20023;-67
2022/07/14 07:34:44;;;;;;;4.22;1.83;;;20.40;76.30;;;;;;4972863;28;20469;-67
2022/07/14 07:37:10;;;;;;;4.47;1.95;;;20.50;76.30;;;;;;4953355;28;20454;-67
2022/07/14 07:39:36;;;;;;;5.55;2.03;;;20.60;75.10;;;;;;4970839;28;20449;-67
2022/07/14 07:42:01;;;;;;;5.63;2.22;;;20.60;75.00;;;;;;4966471;28;20076;-67
2022/07/14 07:44:29;;;;;;;7.03;2.35;;;20.50;73.60;;;;;;4981465;28;20065;-67
2022/07/14 07:46:54;;;;;;;6.68;1.70;;;20.50;73.50;;;;;;4970786;28;20019;-67
2022/07/14 07:49:20;;;;;;;4.28;1.60;;;20.50;72.30;;;;;;4972576;28;20089;-67
2022/07/14 07:51:45;;;;;;;6.03;2.40;;;20.40;72.30;;;;;;4970548;28;20062;-68
2022/07/14 07:54:11;;;;;;;6.20;1.75;;;20.40;72.10;;;;;;4971775;28;20493;-69
2022/07/14 07:56:36;;;;;;;6.65;2.47;;;20.40;72.10;;;;;;4969122;28;20019;-69
2022/07/14 07:59:02;;;;;;;4.00;2.03;;;20.50;71.80;;;;;;4972071;28;20042;-69
2022/07/14 08:01:28;;;;;;;7.40;2.83;;;20.60;72.20;;;;;;4970305;28;20026;-69
2022/07/14 08:03:53;;;;;;;5.10;1.85;;;20.60;71.50;;;;;;4950615;28;20090;-69
2022/07/14 08:06:19;;;;;;;6.35;2.03;;;20.70;71.10;;;;;;4969003;28;20113;-69
2022/07/14 08:08:44;;;;;;;5.75;1.88;;;20.70;70.10;;;;;;4974163;28;20062;-69
2022/07/14 08:11:10;;;;;;;5.03;1.80;;;20.60;70.10;;;;;;4968384;28;20039;-69
2022/07/14 08:13:35;;;;;;;5.60;1.88;;;20.60;69.70;;;;;;4970073;28;20027;-69
2022/07/14 08:16:01;;;;;;;7.57;1.98;;;20.60;69.30;;;;;;4956626;28;20071;-69
2022/07/14 08:18:26;;;;;;;5.15;1.67;;;20.60;68.70;;;;;;4974645;28;20080;-69
2022/07/14 08:20:52;;;;;;;5.60;1.73;;;20.50;69.20;;;;;;4979843;28;20453;-69
2022/07/14 08:23:19;;;;;;;4.00;1.77;;;20.60;68.70;;;;;;4971588;28;20470;-67
2022/07/14 08:25:44;;;;;;;3.55;1.60;;;20.50;69.10;;;;;;4974471;28;20109;-68
2022/07/14 08:28:10;;;;;;;6.47;1.98;;;20.60;69.10;;;;;;4974823;28;20533;-68
2022/07/14 08:30:36;;;;;;;5.82;2.33;;;20.60;69.20;;;;;;4975733;28;20395;-68
2022/07/14 08:33:01;;;;;;;3.65;1.30;;;20.70;69.10;;;;;;4974834;28;20371;-67
2022/07/14 08:35:27;;;;;;;3.50;1.75;;;20.80;68.30;;;;;;4975425;28;20061;-68
2022/07/14 08:37:54;;;;;;;3.90;1.73;;;20.90;68.60;;;;;;4974293;28;20026;-69
2022/07/14 08:40:23;;;;;;;5.63;2.38;;;20.90;67.30;;;;;;4974979;28;20309;-69
2022/07/14 08:42:51;;;;;;;2.47;1.30;;;21.00;67.20;;;;;;4974304;28;20027;-69
2022/07/14 08:45:19;;;;;;;7.13;1.75;;;21.10;67.50;;;;;;4975631;28;20033;-69
2022/07/14 08:47:46;;;;;;;5.28;1.88;;;21.10;66.90;;;;;;4970944;28;20018;-69
2022/07/14 08:50:14;;;;;;;3.58;1.58;;;21.20;67.10;;;;;;4971099;28;20035;-69
2022/07/14 08:52:44;;;;;;;5.72;1.60;;;21.20;66.90;;;;;;4973729;28;20058;-69
2022/07/14 08:55:11;;;;;;;5.07;1.75;;;21.30;65.90;;;;;;4973966;28;20055;-69
2022/07/14 08:57:39;;;;;;;3.63;1.60;;;21.30;66.20;;;;;;4974228;28;20041;-69
2022/07/14 09:00:09;;;;;;;4.35;1.30;;;21.40;65.70;;;;;;4974048;28;20042;-69
2022/07/14 09:02:36;;;;;;;4.35;1.48;;;21.40;64.90;;;;;;4950089;29;20046;-68
2022/07/14 09:05:02;;;;;;;7.53;1.70;;;21.50;65.00;;;;;;4969511;28;20478;-68
2022/07/14 09:07:37;;;;;;;4.03;1.50;;;21.50;64.80;;;;;;4955720;28;20474;-69
2022/07/14 09:10:14;;;;;;;4.53;1.35;;;21.50;64.10;;;;;;4973873;28;20050;-68
2022/07/14 09:12:41;;;;;;;4.65;2.05;;;21.50;64.30;;;;;;4973314;28;20062;-68
2022/07/14 09:18:04;;;;;;;5.25;1.55;;;21.60;63.50;;;;;;4971535;28;20042;-68
2022/07/14 09:20:32;;;;;;;3.88;2.13;;;21.70;62.60;;;;;;4971398;28;20042;-68
2022/07/14 09:23:00;;;;;;;3.30;1.83;;;21.70;63.20;;;;;;4973764;28;20085;-70
2022/07/14 09:25:27;;;;;;;3.75;1.48;;;21.80;63.30;;;;;;4958646;28;20390;-70
2022/07/14 09:27:54;;;;;;;5.13;1.67;;;21.90;63.40;;;;;;4973041;28;20038;-70
2022/07/14 09:30:20;;;;;;;4.40;1.70;;;21.90;62.20;;;;;;4971675;28;20031;-70
2022/07/14 09:32:51;;;;;;;3.70;1.58;;;21.90;62.50;;;;;;4956150;28;20053;-69
2022/07/14 09:35:21;;;;;;;3.65;1.50;;;22.00;62.10;;;;;;4972879;28;20031;-69
2022/07/14 09:37:48;;;;;;;1.92;1.00;;;22.00;62.20;;;;;;4973469;28;20074;-69
2022/07/14 09:40:25;;;;;;;3.65;1.40;;;22.10;61.40;;;;;;4972581;28;20035;-68
2022/07/14 09:43:03;;;;;;;5.65;1.55;;;22.10;60.60;;;;;;4973116;28;20458;-69
2022/07/14 09:45:37;;;;;;;2.08;1.20;;;22.10;60.50;;;;;;4972751;28;20508;-69
2022/07/14 09:48:08;;;;;;;4.43;1.52;;;22.20;60.60;;;;;;4956071;28;20027;-69
2022/07/14 09:50:44;;;;;;;2.58;1.27;;;22.20;60.50;;;;;;4935096;28;1062179;-70
2022/07/14 09:53:16;;;;;;;5.82;1.58;;;22.20;61.30;;;;;;4973817;28;20430;-69
2022/07/14 09:56:04;;;;;;;3.50;1.55;;;22.30;59.90;;;;;;4974405;28;20134;-69
2022/07/14 09:58:52;;;;;;;3.60;1.38;;;22.40;58.20;;;;;;4948501;28;20047;-69
2022/07/14 10:01:18;;;;;;;3.22;1.20;;;22.40;58.80;;;;;;4973169;28;20031;-69
2022/07/14 10:03:53;;;;;;;3.08;1.10;;;22.50;58.80;;;;;;4973680;28;20035;-69
2022/07/14 10:06:20;;;;;;;;;;;22.50;59.50;;;;;;4974007;28;20035;-69
2022/07/14 10:08:52;;;;;;;2.47;1.05;;;22.60;57.40;;;;;;4973563;28;20012;-69
2022/07/14 10:11:18;;;;;;;2.10;1.15;;;22.50;57.60;;;;;;4973940;28;20026;-68
2022/07/14 10:13:45;;;;;;;2.72;0.98;;;22.60;58.20;;;;;;4973740;28;20159;-69
2022/07/14 10:16:11;;;;;;;3.15;1.27;;;22.70;56.80;;;;;;4973546;28;20034;-70
2022/07/14 10:18:36;;;;;;;3.28;1.67;;;22.80;57.20;;;;;;4973213;28;20049;-69
2022/07/14 10:21:04;;;;;;;3.55;1.20;;;22.90;57.20;;;;;;4973544;28;20482;-69
2022/07/14 10:23:30;;;;;;;2.72;1.25;;;22.90;58.00;;;;;;4955386;28;20378;-70
2022/07/14 10:25:58;;;;;;;3.63;1.52;;;23.00;58.50;;;;;;4973169;28;20022;-70
2022/07/14 10:28:24;;;;;;;3.90;1.35;;;23.10;58.30;;;;;;4973504;28;20101;-70
2022/07/14 10:31:19;;;;;;;5.90;2.13;;;23.20;58.30;;;;;;4973496;28;20031;-69
2022/07/14 10:34:09;;;;;;;3.10;1.30;;;23.20;56.50;;;;;;4973835;28;20031;-69
2022/07/14 10:37:08;;;;;;;2.90;1.20;;;23.20;56.70;;;;;;4973379;28;20034;-69
2022/07/14 10:39:56;;;;;;;2.92;1.23;;;23.20;57.10;;;;;;4953213;28;20039;-69
2022/07/14 10:42:55;;;;;;;2.67;1.35;;;23.20;55.70;;;;;;4974353;28;20536;-69
2022/07/14 10:45:22;;;;;;;3.35;1.10;;;23.20;55.80;;;;;;4968683;28;20043;-69
2022/07/14 10:47:49;;;;;;;3.45;1.58;;;23.20;55.50;;;;;;4972860;28;21583;-69
2022/07/14 10:50:23;;;;;;;2.72;1.50;;;23.20;55.40;;;;;;4969156;28;20562;-69
2022/07/14 10:52:50;;;;;;;1.92;1.45;;;23.20;55.30;;;;;;4972174;28;20054;-69
2022/07/14 10:55:17;;;;;;;3.85;1.55;;;23.30;55.90;;;;;;4970013;28;20039;-68
2022/07/14 10:57:58;;;;;;;2.20;1.17;;;23.30;55.20;;;;;;4960822;28;20030;-68
2022/07/14 11:00:39;;;;;;;3.88;1.50;;;23.30;55.30;;;;;;4972609;28;20149;-69
2022/07/14 11:03:20;;;;;;;6.32;1.70;;;23.30;55.30;;;;;;4972596;28;20038;-69
2022/07/14 11:06:07;;;;;;;4.28;1.30;;;23.30;56.40;;;;;;4972180;28;20046;-69
2022/07/14 11:08:37;;;;;;;3.85;1.33;;;23.40;55.90;;;;;;4973013;28;20035;-68
2022/07/14 11:11:08;;;;;;;4.55;1.30;;;23.50;55.10;;;;;;4972601;28;20046;-69
2022/07/14 11:13:54;;;;;;;5.30;1.30;;;23.50;55.90;;;;;;4971727;28;20386;-68
2022/07/14 11:16:40;;;;;;;3.63;1.70;;;23.60;54.50;;;;;;4971449;28;20030;-68
2022/07/14 11:19:32;;;;;;;2.33;0.93;;;23.70;54.20;;;;;;4971502;28;20035;-68
2022/07/14 11:22:13;;;;;;;4.63;2.30;;;23.70;53.50;;;;;;4972334;28;20100;-69
2022/07/14 11:24:53;;;;;;;6.43;2.78;;;23.80;54.10;;;;;;4971700;28;20030;-68
2022/07/14 11:27:39;;;;;;;3.50;1.42;;;23.90;53.60;;;;;;4972865;28;20114;-68
2022/07/14 11:30:28;;;;;;;3.85;1.30;;;24.00;52.60;;;;;;4970935;28;20090;-68
2022/07/14 11:32:58;;;;;;;4.03;1.20;;;24.00;52.10;;;;;;4955082;28;20026;-68
2022/07/14 11:38:37;;;;;;;;;;;24.00;52.00;;;;;;4955703;28;20407;-68
2022/07/14 11:41:08;;;;;;;2.75;1.10;;;24.00;53.00;;;;;;4960817;28;19910;-68
2022/07/14 11:43:35;;;;;;;3.67;1.60;;;24.00;52.50;;;;;;4973239;28;20510;-68
2022/07/14 11:46:05;;;;;;;1.80;0.85;;;24.00;52.80;;;;;;4971917;28;20382;-68
2022/07/14 11:48:33;;;;;;;2.25;0.90;;;24.00;53.10;;;;;;4967891;28;20045;-70
2022/07/14 11:51:03;;;;;;;2.15;1.10;;;24.10;52.80;;;;;;4972334;28;20043;-70
2022/07/14 11:53:30;;;;;;;3.08;1.02;;;24.10;52.30;;;;;;4967487;28;20035;-69
2022/07/14 11:55:57;;;;;;;3.72;1.15;;;24.10;52.50;;;;;;4953594;28;20024;-70
2022/07/14 11:58:23;;;;;;;6.55;1.20;;;24.10;52.20;;;;;;4972638;28;20041;-70
2022/07/14 12:00:54;;;;;;;3.13;1.17;;;24.20;51.80;;;;;;4951369;28;20031;-69
2022/07/14 12:03:20;;;;;;;4.53;1.23;;;24.20;51.60;;;;;;4972905;28;20077;-70
2022/07/14 12:05:46;;;;;;;5.63;1.02;;;24.20;51.50;;;;;;4972555;28;20034;-72
2022/07/14 12:08:14;;;;;;;4.53;1.30;;;24.20;50.50;;;;;;4954343;28;20573;-69
2022/07/14 12:10:41;;;;;;;4.80;1.30;;;24.30;50.70;;;;;;4939094;28;20037;-71
2022/07/14 12:13:08;;;;;;;3.30;1.52;;;24.30;50.50;;;;;;4971939;28;20033;-73
2022/07/14 12:15:34;;;;;;;1.70;1.00;;;24.40;50.60;;;;;;4972674;28;20106;-70
2022/07/14 12:18:01;;;;;;;3.33;1.30;;;24.50;50.60;;;;;;4971691;28;20498;-71
2022/07/14 12:20:45;;;;;;;6.38;1.08;;;24.60;50.00;;;;;;4969988;28;20383;-70
2022/07/14 12:23:13;;;;;;;4.85;1.33;;;24.60;49.30;;;;;;4968948;28;20569;-69
2022/07/14 12:25:46;;;;;;;2.05;1.20;;;24.50;49.60;;;;;;4972216;28;20485;-69
2022/07/14 12:28:16;;;;;;;4.40;1.40;;;24.60;49.90;;;;;;4971637;28;20571;-70
2022/07/14 12:30:51;;;;;;;2.20;1.25;;;24.60;49.10;;;;;;4961268;28;20050;-70
2022/07/14 12:33:28;;;;;;;2.22;1.38;;;24.60;48.90;;;;;;4971806;28;20557;-70
2022/07/14 12:35:57;;;;;;;2.63;1.23;;;24.60;49.10;;;;;;4971703;28;20063;-70
2022/07/14 12:38:25;;;;;;;3.50;1.35;;;24.70;49.10;;;;;;4972592;28;20385;-71
2022/07/14 12:40:54;;;;;;;2.10;1.20;;;24.70;49.60;;;;;;4971690;28;20065;-70
2022/07/14 12:43:20;;;;;;;4.70;1.35;;;24.80;48.50;;;;;;4972086;28;20070;-70
2022/07/14 12:46:05;;;;;;;1.63;1.05;;;24.90;48.40;;;;;;4954047;28;20031;-70
2022/07/14 12:48:56;;;;;;;4.07;1.10;;;24.90;48.30;;;;;;4972387;28;20056;-70
2022/07/14 12:51:40;;;;;;;2.83;1.27;;;25.10;48.70;;;;;;4971402;28;20109;-70
2022/07/14 12:54:31;;;;;;;4.13;1.30;;;25.10;48.70;;;;;;4972175;28;20502;-69
2022/07/14 12:56:57;;;;;;;5.47;1.35;;;25.30;49.20;;;;;;4971593;28;20229;-70
2022/07/14 12:59:29;;;;;;;4.22;1.00;;;25.40;48.70;;;;;;4972038;28;20122;-70
2022/07/14 13:02:00;;;;;;;2.85;0.90;;;25.50;47.30;;;;;;4970115;28;20035;-70
2022/07/14 13:04:34;;;;;;;3.25;1.38;;;25.60;47.70;;;;;;4973017;28;20026;-70
2022/07/14 13:07:21;;;;;;;2.08;1.10;;;25.70;47.20;;;;;;4975404;28;20034;-70